createdAt,value
2023-04-25T00:00:32.865Z,46.22
2023-04-25T00:03:00.562Z,46.04
2023-04-25T00:05:28.553Z,46.20
2023-04-25T00:07:55.559Z,46.00
2023-04-25T00:10:23.074Z,46.48
2023-04-25T00:12:50.864Z,46.28
2023-04-25T00:15:18.532Z,46.09
2023-04-25T00:17:46.717Z,46.21
2023-04-25T00:20:14.306Z,45.94
2023-04-25T00:22:41.668Z,45.32
2023-04-25T00:25:08.938Z,45.70
2023-04-25T00:27:36.322Z,45.53
2023-04-25T00:30:04.208Z,45.38
2023-04-25T00:32:31.318Z,45.24
2023-04-25T00:34:58.822Z,45.07
2023-04-25T00:37:25.964Z,44.51
2023-04-25T00:39:54.471Z,44.42
2023-04-25T00:42:21.908Z,44.13
2023-04-25T00:44:48.918Z,44.08
2023-04-25T00:47:16.305Z,43.68
2023-04-25T00:49:44.192Z,43.47
2023-04-25T00:52:12.876Z,42.99
2023-04-25T00:54:40.035Z,42.78
2023-04-25T00:57:07.379Z,42.51
2023-04-25T00:59:34.799Z,42.70
2023-04-25T01:02:02.387Z,42.03
2023-04-25T01:04:29.814Z,42.30
2023-04-25T01:06:57.657Z,41.56
2023-04-25T01:09:25.471Z,41.12
2023-04-25T01:11:52.770Z,40.99
2023-04-25T01:14:20.312Z,40.99
2023-04-25T01:16:47.404Z,41.02
2023-04-25T01:19:14.902Z,40.41
2023-04-25T01:21:42.169Z,40.60
2023-04-25T01:24:09.490Z,40.74
2023-04-25T01:26:37.498Z,41.21
2023-04-25T01:29:05.793Z,42.00
2023-04-25T01:31:33.581Z,41.99
2023-04-25T01:34:01.581Z,42.39
2023-04-25T01:36:29.703Z,42.49
2023-04-25T01:38:56.838Z,43.11
2023-04-25T01:41:24.309Z,43.39
2023-04-25T01:43:52.035Z,43.21
2023-04-25T01:46:19.681Z,43.55
2023-04-25T01:48:47.224Z,44.41
2023-04-25T01:51:14.692Z,44.58
2023-04-25T01:53:42.222Z,44.59
2023-04-25T01:56:09.907Z,44.82
2023-04-25T01:58:37.380Z,45.08
2023-04-25T02:01:26.327Z,44.80
2023-04-25T02:04:12.210Z,44.71
2023-04-25T02:06:41.152Z,44.90
2023-04-25T02:09:08.800Z,44.47
2023-04-25T02:11:40.678Z,44.35
2023-04-25T02:14:40.204Z,43.81
2023-04-25T02:17:17.431Z,43.78
2023-04-25T02:19:46.255Z,43.01
2023-04-25T02:22:13.617Z,42.96
2023-04-25T02:24:41.096Z,42.88
2023-04-25T02:27:08.821Z,42.50
2023-04-25T02:29:36.534Z,42.11
2023-04-25T02:32:04.394Z,41.93
2023-04-25T02:34:32.031Z,41.98
2023-04-25T02:37:01.458Z,41.64
2023-04-25T02:39:28.835Z,41.52
2023-04-25T02:41:56.593Z,41.05
2023-04-25T02:44:24.187Z,40.37
2023-04-25T02:46:51.675Z,40.81
2023-04-25T02:49:19.003Z,41.01
2023-04-25T02:51:46.458Z,40.69
2023-04-25T02:54:14.138Z,41.64
2023-04-25T02:56:44.613Z,42.02
2023-04-25T02:59:17.425Z,43.83
2023-04-25T03:01:44.876Z,44.45
2023-04-25T03:04:12.097Z,45.13
2023-04-25T03:06:39.235Z,44.99
2023-04-25T03:09:06.753Z,43.76
2023-04-25T03:11:33.905Z,42.07
2023-04-25T03:14:02.160Z,43.64
2023-04-25T03:16:29.304Z,43.73
2023-04-25T03:18:56.677Z,43.00
2023-04-25T03:21:24.212Z,41.93
2023-04-25T03:23:52.276Z,42.13
2023-04-25T03:26:19.867Z,40.85
2023-04-25T03:28:47.015Z,40.15
2023-04-25T03:31:14.596Z,38.49
2023-04-25T03:33:42.202Z,37.99
2023-04-25T03:36:10.212Z,36.62
2023-04-25T03:38:37.725Z,35.70
2023-04-25T03:41:06.865Z,34.45
2023-04-25T03:43:43.533Z,32.39
2023-04-25T03:46:13.438Z,31.48
2023-04-25T03:48:41.904Z,30.04
2023-04-25T03:51:12.293Z,30.90
2023-04-25T03:53:43.003Z,28.59
2023-04-25T03:56:16.097Z,32.96
2023-04-25T03:58:45.996Z,30.56
2023-04-25T04:01:15.203Z,26.05
2023-04-25T04:03:42.986Z,32.15
2023-04-25T04:06:11.783Z,31.23
2023-04-25T04:08:44.556Z,26.91
2023-04-25T04:11:12.611Z,24.71
2023-04-25T04:13:39.643Z,24.54
2023-04-25T04:16:08.049Z,24.38
2023-04-25T04:18:36.773Z,23.75
2023-04-25T04:21:04.085Z,23.50
2023-04-25T04:23:34.355Z,24.46
2023-04-25T04:26:02.143Z,24.25
2023-04-25T04:28:49.329Z,25.40
2023-04-25T04:31:39.771Z,24.75
2023-04-25T04:34:06.986Z,25.43
2023-04-25T04:36:35.685Z,25.32
2023-04-25T04:39:04.255Z,24.96
2023-04-25T04:42:02.499Z,25.25
2023-04-25T04:44:39.648Z,25.24
2023-04-25T04:47:24.715Z,26.22
2023-04-25T04:50:12.122Z,26.10
2023-04-25T04:53:14.292Z,26.76
2023-04-25T04:56:01.898Z,31.94
2023-04-25T04:58:53.258Z,34.82
2023-04-25T05:01:40.684Z,38.12
2023-04-25T05:04:44.790Z,38.86
2023-04-25T05:07:35.436Z,40.83
2023-04-25T05:10:10.213Z,41.97
2023-04-25T05:12:58.334Z,42.41
2023-04-25T05:15:31.647Z,42.68
2023-04-25T05:18:18.940Z,42.55
2023-04-25T05:20:54.443Z,44.54
2023-04-25T05:23:38.859Z,46.18
2023-04-25T05:26:44.609Z,47.95
2023-04-25T05:29:34.298Z,47.80
2023-04-25T05:32:22.340Z,48.80
2023-04-25T05:34:50.800Z,49.31
2023-04-25T05:37:24.310Z,49.75
2023-04-25T05:39:58.035Z,49.52
2023-04-25T05:42:33.655Z,49.44
2023-04-25T05:45:19.431Z,50.26
2023-04-25T05:47:55.330Z,50.72
2023-04-25T05:50:42.648Z,50.81
2023-04-25T05:53:34.379Z,52.20
2023-04-25T05:56:03.777Z,52.46
2023-04-25T05:58:31.497Z,52.40
2023-04-25T06:01:00.486Z,51.16
2023-04-25T06:03:28.699Z,50.79
2023-04-25T06:05:58.449Z,50.04
2023-04-25T06:08:26.643Z,51.20
2023-04-25T06:10:53.780Z,51.74
2023-04-25T06:13:20.876Z,52.12
2023-04-25T06:15:48.427Z,50.87
2023-04-25T06:18:15.667Z,49.64
2023-04-25T06:20:43.203Z,47.37
2023-04-25T06:23:11.072Z,46.27
2023-04-25T06:25:47.343Z,45.24
2023-04-25T06:28:15.525Z,44.48
2023-04-25T06:30:44.091Z,43.52
2023-04-25T06:33:15.477Z,43.50
2023-04-25T06:35:42.810Z,42.67
2023-04-25T06:38:13.080Z,39.03
2023-04-25T06:40:43.998Z,35.10
2023-04-25T06:43:11.457Z,30.31
2023-04-25T06:45:57.000Z,27.79
2023-04-25T06:48:28.234Z,25.13
2023-04-25T06:50:57.571Z,24.66
2023-04-25T06:53:25.505Z,23.87
2023-04-25T06:55:58.972Z,23.79
2023-04-25T06:58:31.497Z,24.01
2023-04-25T07:01:34.043Z,23.86
2023-04-25T07:04:05.847Z,21.84
2023-04-25T07:06:35.147Z,20.79
2023-04-25T07:09:02.695Z,21.32
2023-04-25T07:11:30.029Z,21.86
2023-04-25T07:13:57.411Z,20.90
2023-04-25T07:16:24.406Z,20.57
2023-04-25T07:18:52.852Z,20.53
2023-04-25T07:21:20.462Z,20.44
2023-04-25T07:23:50.256Z,20.86
2023-04-25T07:26:22.289Z,20.90
2023-04-25T07:29:09.667Z,20.01
2023-04-25T07:31:36.978Z,20.07
2023-04-25T07:34:04.258Z,19.07
2023-04-25T07:36:31.776Z,19.06
2023-04-25T07:38:59.244Z,19.35
2023-04-25T07:41:26.611Z,28.80
2023-04-25T07:43:53.721Z,34.44
2023-04-25T07:46:21.888Z,38.30
2023-04-25T07:48:49.409Z,42.21
2023-04-25T07:51:17.121Z,44.43
2023-04-25T07:53:44.306Z,46.35
2023-04-25T07:56:14.495Z,47.22
2023-04-25T07:58:44.242Z,46.40
2023-04-25T08:01:14.476Z,46.89
2023-04-25T08:03:50.755Z,46.79
2023-04-25T08:06:44.354Z,47.31
2023-04-25T08:09:19.346Z,48.09
2023-04-25T08:11:47.606Z,47.32
2023-04-25T08:14:17.459Z,47.85
2023-04-25T08:16:45.988Z,46.39
2023-04-25T08:19:13.995Z,45.60
2023-04-25T08:21:41.170Z,43.64
2023-04-25T08:24:12.562Z,42.30
2023-04-25T08:26:42.288Z,38.55
2023-04-25T08:29:12.651Z,38.82
2023-04-25T08:31:41.919Z,37.62
2023-04-25T08:34:10.319Z,36.36
2023-04-25T08:36:51.408Z,34.93
2023-04-25T08:39:38.244Z,35.10
2023-04-25T08:42:23.849Z,37.50
2023-04-25T08:44:51.311Z,36.32
2023-04-25T08:47:20.344Z,37.59
2023-04-25T08:49:52.479Z,40.33
2023-04-25T08:52:22.757Z,40.95
2023-04-25T08:54:50.224Z,38.06
2023-04-25T08:57:18.690Z,34.59
2023-04-25T08:59:47.828Z,33.92
2023-04-25T09:02:17.845Z,34.15
2023-04-25T09:04:48.528Z,30.36
2023-04-25T09:07:19.226Z,28.70
2023-04-25T09:09:46.988Z,29.44
2023-04-25T09:12:20.220Z,36.38
2023-04-25T09:15:10.562Z,37.32
2023-04-25T09:18:06.721Z,36.67
2023-04-25T09:21:00.926Z,27.27
2023-04-25T09:23:32.920Z,23.36
2023-04-25T09:26:00.500Z,22.12
2023-04-25T09:28:30.082Z,21.75
2023-04-25T09:31:01.794Z,21.33
2023-04-25T09:33:47.008Z,21.28
2023-04-25T09:36:14.840Z,20.04
2023-04-25T09:39:17.159Z,19.33
2023-04-25T09:41:56.111Z,20.14
2023-04-25T09:44:27.821Z,19.47
2023-04-25T09:46:56.411Z,19.30
2023-04-25T09:49:28.510Z,19.50
2023-04-25T09:52:05.756Z,19.52
2023-04-25T09:54:42.354Z,19.61
2023-04-25T09:57:24.358Z,19.47
2023-04-25T09:59:55.057Z,18.90
2023-04-25T10:02:24.281Z,19.09
2023-04-25T10:04:55.709Z,18.66
2023-04-25T10:07:31.725Z,18.42
2023-04-25T10:10:04.116Z,18.78
2023-04-25T10:12:33.709Z,18.88
2023-04-25T10:15:01.641Z,19.50
2023-04-25T10:17:29.413Z,19.88
2023-04-25T10:19:57.596Z,20.52
2023-04-25T10:22:31.535Z,20.34
2023-04-25T10:24:58.936Z,20.16
2023-04-25T10:27:28.561Z,19.92
2023-04-25T10:30:07.335Z,19.69
2023-04-25T10:32:34.864Z,20.12
2023-04-25T10:35:12.795Z,19.62
2023-04-25T10:37:57.128Z,19.93
2023-04-25T10:40:24.283Z,19.95
2023-04-25T10:42:54.881Z,19.88
2023-04-25T10:45:22.252Z,20.32
2023-04-25T10:47:49.860Z,20.43
2023-04-25T10:50:17.589Z,21.29
2023-04-25T10:52:47.861Z,20.74
2023-04-25T10:55:15.293Z,20.86
2023-04-25T10:57:44.780Z,20.70
2023-04-25T11:00:13.975Z,20.63
2023-04-25T11:02:49.468Z,20.29
2023-04-25T11:05:24.582Z,20.76
2023-04-25T11:08:03.890Z,20.64
2023-04-25T11:10:38.228Z,20.55
2023-04-25T11:13:05.802Z,20.65
2023-04-25T11:15:33.516Z,20.08
2023-04-25T11:18:00.983Z,19.18
2023-04-25T11:20:29.563Z,19.66
2023-04-25T11:23:00.010Z,19.62
2023-04-25T11:25:27.817Z,19.82
2023-04-25T11:27:59.062Z,20.12
2023-04-25T11:30:27.009Z,19.81
2023-04-25T11:32:54.281Z,20.19
2023-04-25T11:35:24.319Z,20.32
2023-04-25T11:37:52.814Z,19.24
2023-04-25T11:40:20.276Z,19.10
2023-04-25T11:42:47.923Z,20.05
2023-04-25T11:45:15.368Z,19.53
2023-04-25T11:47:42.775Z,19.61
2023-04-25T11:50:10.722Z,20.05
2023-04-25T11:52:39.085Z,19.75
2023-04-25T11:55:09.115Z,19.87
2023-04-25T11:57:41.512Z,19.84
2023-04-25T12:00:18.584Z,20.09
2023-04-25T12:02:48.200Z,19.45
2023-04-25T12:07:49.259Z,20.50
2023-04-25T12:10:17.632Z,21.33
2023-04-25T12:12:46.087Z,21.37
2023-04-25T12:15:26.634Z,22.31
2023-04-25T12:17:55.185Z,22.90
2023-04-25T12:20:25.212Z,23.55
2023-04-25T12:22:52.843Z,23.30
2023-04-25T12:25:35.826Z,23.80
2023-04-25T12:28:23.742Z,23.19
2023-04-25T12:31:05.467Z,23.23
2023-04-25T12:33:43.459Z,22.98
2023-04-25T12:36:12.575Z,23.22
2023-04-25T12:38:41.525Z,23.28
2023-04-25T12:41:09.442Z,23.50
2023-04-25T12:43:37.327Z,23.25
2023-04-25T12:46:04.840Z,23.15
2023-04-25T12:48:32.287Z,23.32
2023-04-25T12:50:59.716Z,23.26
2023-04-25T12:53:27.136Z,23.15
2023-04-25T12:58:26.566Z,23.62
2023-04-25T13:00:54.153Z,23.85
2023-04-25T13:03:22.986Z,24.26
2023-04-25T13:05:51.028Z,24.04
2023-04-25T13:08:18.121Z,24.35
2023-04-25T13:10:45.312Z,24.52
2023-04-25T13:13:12.491Z,24.53
2023-04-25T13:15:40.506Z,24.34
2023-04-25T13:18:08.307Z,24.63
2023-04-25T13:20:36.679Z,24.43
2023-04-25T13:23:04.066Z,24.88
2023-04-25T13:25:31.558Z,24.93
2023-04-25T13:27:58.571Z,25.59
2023-04-25T13:30:25.763Z,25.50
2023-04-25T13:32:53.413Z,25.64
2023-04-25T13:35:20.750Z,26.00
2023-04-25T13:37:47.866Z,25.76
2023-04-25T13:40:15.639Z,25.83
2023-04-25T13:42:43.635Z,26.03
2023-04-25T13:45:11.379Z,26.19
2023-04-25T13:47:38.477Z,26.24
2023-04-25T13:50:08.691Z,25.90
2023-04-25T13:52:35.805Z,25.99
2023-04-25T13:55:04.828Z,26.01
2023-04-25T13:57:32.377Z,25.91
2023-04-25T14:00:00.061Z,26.07
2023-04-25T14:02:27.846Z,25.86
2023-04-25T14:04:55.384Z,25.90
2023-04-25T14:07:22.575Z,26.11
2023-04-25T14:09:50.262Z,26.03
2023-04-25T14:12:17.347Z,26.33
2023-04-25T14:14:44.452Z,26.35
2023-04-25T14:17:11.898Z,26.44
2023-04-25T14:19:43.845Z,26.59
2023-04-25T14:22:11.242Z,26.08
2023-04-25T14:24:39.173Z,26.15
2023-04-25T14:27:06.415Z,26.18
2023-04-25T14:29:33.980Z,26.02
2023-04-25T14:32:01.208Z,26.02
2023-04-25T14:34:28.711Z,26.22
2023-04-25T14:36:56.180Z,25.85
2023-04-25T14:39:23.358Z,25.55
2023-04-25T14:41:50.553Z,25.89
2023-04-25T14:44:17.634Z,25.54
2023-04-25T14:46:45.621Z,26.12
2023-04-25T14:49:12.931Z,26.11
2023-04-25T14:51:40.066Z,26.40
2023-04-25T14:54:07.519Z,26.16
2023-04-25T14:56:34.852Z,26.80
2023-04-25T14:59:02.015Z,27.08
2023-04-25T15:01:29.196Z,26.49
2023-04-25T15:03:57.199Z,27.18
2023-04-25T15:06:27.261Z,27.28
2023-04-25T15:08:54.626Z,27.63
2023-04-25T15:11:23.107Z,27.53
2023-04-25T15:13:50.789Z,28.18
2023-04-25T15:16:19.142Z,28.26
2023-04-25T15:18:46.441Z,28.51
2023-04-25T15:21:13.430Z,28.81
2023-04-25T15:23:41.199Z,28.60
2023-04-25T15:26:09.323Z,28.78
2023-04-25T15:28:37.065Z,29.06
2023-04-25T15:31:04.136Z,29.41
2023-04-25T15:33:31.986Z,28.95
2023-04-25T15:35:59.439Z,29.74
2023-04-25T15:38:27.091Z,29.29
2023-04-25T15:40:54.191Z,29.96
2023-04-25T15:43:21.696Z,29.77
2023-04-25T15:45:48.803Z,29.73
2023-04-25T15:48:16.453Z,30.29
2023-04-25T15:50:44.112Z,29.78
2023-04-25T15:53:11.212Z,30.25
2023-04-25T15:55:38.648Z,30.21
2023-04-25T15:58:06.136Z,30.13
2023-04-25T16:00:36.192Z,30.66
2023-04-25T16:03:04.269Z,30.31
2023-04-25T16:05:32.514Z,30.59
2023-04-25T16:08:00.712Z,30.48
2023-04-25T16:10:27.761Z,30.92
2023-04-25T16:12:55.089Z,30.77
2023-04-25T16:15:22.608Z,30.89
2023-04-25T16:17:49.585Z,31.39
2023-04-25T16:20:17.025Z,31.29
2023-04-25T16:22:44.527Z,31.60
2023-04-25T16:25:14.311Z,31.45
2023-04-25T16:27:41.461Z,31.73
2023-04-25T16:30:09.932Z,31.60
2023-04-25T16:32:37.718Z,31.79
2023-04-25T16:35:05.363Z,32.03
2023-04-25T16:37:32.609Z,31.82
2023-04-25T16:39:59.968Z,31.74
2023-04-25T16:42:27.639Z,31.89
2023-04-25T16:44:55.379Z,31.98
2023-04-25T16:47:22.696Z,32.13
2023-04-25T16:49:50.617Z,32.32
2023-04-25T16:52:17.630Z,32.58
2023-04-25T16:54:45.802Z,32.60
2023-04-25T16:57:13.489Z,33.10
2023-04-25T16:59:41.195Z,34.05
2023-04-25T17:02:12.466Z,34.27
2023-04-25T17:04:40.443Z,35.21
2023-04-25T17:07:08.456Z,36.02
2023-04-25T17:09:35.929Z,35.96
2023-04-25T17:12:03.813Z,36.33
2023-04-25T17:14:33.186Z,36.86
2023-04-25T17:17:00.708Z,37.17
2023-04-25T17:19:28.286Z,38.25
2023-04-25T17:21:56.164Z,38.46
2023-04-25T17:24:23.533Z,39.16
2023-04-25T17:26:50.669Z,39.04
2023-04-25T17:29:18.764Z,39.56
2023-04-25T17:31:46.176Z,39.72
2023-04-25T17:34:17.552Z,39.50
2023-04-25T17:36:48.397Z,39.70
2023-04-25T17:39:16.970Z,39.92
2023-04-25T17:41:44.701Z,39.93
2023-04-25T17:44:11.712Z,40.30
2023-04-25T17:46:39.252Z,40.48
2023-04-25T17:49:06.598Z,40.56
2023-04-25T17:51:33.800Z,40.81
2023-04-25T17:54:01.288Z,40.44
2023-04-25T17:56:28.957Z,41.23
2023-04-25T17:58:56.283Z,41.37
2023-04-25T18:01:23.694Z,41.42
2023-04-25T18:03:51.999Z,40.85
2023-04-25T18:06:19.497Z,41.07
2023-04-25T18:08:47.222Z,41.40
2023-04-25T18:11:14.419Z,41.56
2023-04-25T18:13:41.664Z,41.86
2023-04-25T18:16:08.984Z,42.23
2023-04-25T18:18:36.596Z,42.08
2023-04-25T18:21:04.943Z,42.65
2023-04-25T18:23:33.603Z,43.13
2023-04-25T18:26:01.078Z,42.79
2023-04-25T18:28:29.132Z,43.11
2023-04-25T18:30:56.530Z,43.05
2023-04-25T18:33:23.705Z,43.43
2023-04-25T18:35:58.241Z,43.77
2023-04-25T18:41:06.236Z,43.59
2023-04-25T18:43:44.118Z,43.63
2023-04-25T18:46:12.016Z,43.61
2023-04-25T18:48:39.251Z,44.21
2023-04-25T18:51:06.477Z,43.78
2023-04-25T18:53:33.894Z,44.03
2023-04-25T18:56:01.394Z,43.73
2023-04-25T18:58:28.467Z,43.20
2023-04-25T19:00:56.064Z,43.43
2023-04-25T19:03:23.336Z,42.94
2023-04-25T19:05:50.862Z,42.35
2023-04-25T19:08:17.979Z,42.15
2023-04-25T19:10:45.726Z,42.17
2023-04-25T19:13:13.335Z,41.83
2023-04-25T19:15:40.400Z,41.80
2023-04-25T19:18:08.312Z,41.82
2023-04-25T19:20:36.189Z,41.37
2023-04-25T19:23:04.959Z,41.54
2023-04-25T19:25:31.956Z,41.43
2023-04-25T19:28:00.646Z,41.41
2023-04-25T19:30:29.000Z,40.98
2023-04-25T19:32:59.217Z,41.40
2023-04-25T19:35:30.459Z,41.23
2023-04-25T19:37:57.832Z,41.49
2023-04-25T19:40:25.012Z,41.34
2023-04-25T19:42:52.014Z,41.35
2023-04-25T19:45:19.417Z,41.77
2023-04-25T19:47:46.742Z,42.12
2023-04-25T19:50:14.663Z,42.10
2023-04-25T19:52:42.301Z,42.27
2023-04-25T19:55:10.644Z,42.68
2023-04-25T19:57:38.217Z,42.82
2023-04-25T20:00:11.588Z,42.91
2023-04-25T20:02:45.348Z,43.37
2023-04-25T20:05:14.449Z,43.66
2023-04-25T20:07:41.619Z,43.59
2023-04-25T20:10:12.232Z,44.07
2023-04-25T20:12:42.277Z,44.12
2023-04-25T20:15:11.125Z,44.91
2023-04-25T20:17:39.933Z,44.72
2023-04-25T20:20:09.701Z,45.15
2023-04-25T20:22:38.467Z,45.20
2023-04-25T20:25:06.714Z,45.68
2023-04-25T20:27:33.759Z,45.83
2023-04-25T20:30:03.050Z,45.96
2023-04-25T20:32:32.194Z,46.34
2023-04-25T20:34:59.733Z,46.52
2023-04-25T20:37:27.224Z,46.81
2023-04-25T20:39:54.559Z,47.21
2023-04-25T20:42:23.332Z,48.04
2023-04-25T20:44:50.445Z,48.13
2023-04-25T20:47:17.517Z,47.96
2023-04-25T20:49:44.801Z,48.38
2023-04-25T20:52:12.197Z,48.38
2023-04-25T20:54:39.253Z,49.11
2023-04-25T20:57:06.577Z,48.96
2023-04-25T20:59:33.659Z,48.75
2023-04-25T21:02:01.293Z,48.90
2023-04-25T21:04:28.881Z,48.87
2023-04-25T21:06:56.306Z,49.43
2023-04-25T21:09:23.687Z,49.19
2023-04-25T21:11:51.636Z,49.51
2023-04-25T21:14:18.934Z,49.18
2023-04-25T21:16:45.986Z,48.94
2023-04-25T21:19:13.430Z,48.53
2023-04-25T21:21:40.895Z,48.68
2023-04-25T21:24:09.657Z,48.81
2023-04-25T21:26:36.948Z,48.58
2023-04-25T21:29:04.392Z,48.68
2023-04-25T21:31:31.786Z,48.83
2023-04-25T21:33:59.096Z,49.03
2023-04-25T21:36:27.495Z,48.98
2023-04-25T21:38:55.289Z,49.31
2023-04-25T21:41:22.579Z,48.79
2023-04-25T21:43:50.253Z,48.98
2023-04-25T21:46:23.366Z,48.81
2023-04-25T21:48:51.699Z,48.87
2023-04-25T21:51:19.541Z,49.27
2023-04-25T21:53:46.864Z,49.16
2023-04-25T21:56:14.072Z,48.78
2023-04-25T21:58:41.476Z,49.09
2023-04-25T22:01:09.568Z,49.57
2023-04-25T22:03:37.031Z,49.37
2023-04-25T22:06:04.667Z,49.49
2023-04-25T22:08:31.668Z,49.10
2023-04-25T22:11:00.086Z,49.23
2023-04-25T22:13:28.651Z,49.61
2023-04-25T22:15:56.087Z,49.11
2023-04-25T22:18:23.568Z,49.04
2023-04-25T22:20:50.916Z,49.19
2023-04-25T22:23:18.662Z,48.73
2023-04-25T22:25:46.020Z,48.68
2023-04-25T22:28:14.697Z,48.80
2023-04-25T22:30:42.074Z,48.40
2023-04-25T22:33:09.792Z,48.60
2023-04-25T22:35:37.219Z,48.54
2023-04-25T22:38:04.619Z,48.15
2023-04-25T22:40:32.050Z,47.99
2023-04-25T22:42:59.657Z,47.82
2023-04-25T22:45:27.116Z,48.14
2023-04-25T22:47:54.262Z,47.80
2023-04-25T22:50:21.748Z,47.53
2023-04-25T22:52:48.749Z,47.66
2023-04-25T22:55:16.088Z,47.82
2023-04-25T22:57:43.261Z,47.60
2023-04-25T23:00:19.620Z,47.58
2023-04-25T23:02:47.575Z,47.17
2023-04-25T23:05:15.019Z,47.41
2023-04-25T23:07:43.379Z,47.40
2023-04-25T23:10:10.725Z,47.26
2023-04-25T23:12:38.002Z,47.09
2023-04-25T23:15:05.784Z,46.68
2023-04-25T23:17:33.013Z,46.54
2023-04-25T23:20:00.540Z,46.18
2023-04-25T23:22:28.225Z,45.93
2023-04-25T23:24:55.711Z,45.33
2023-04-25T23:27:22.993Z,45.29
2023-04-25T23:29:56.705Z,45.42
2023-04-25T23:32:25.811Z,44.55
2023-04-25T23:34:53.306Z,44.79
2023-04-25T23:37:20.362Z,44.48
2023-04-25T23:39:49.672Z,44.27
2023-04-25T23:42:17.604Z,44.27
2023-04-25T23:44:45.243Z,44.14
2023-04-25T23:47:14.250Z,44.16
2023-04-25T23:49:41.846Z,44.48
2023-04-25T23:52:09.559Z,44.32
2023-04-25T23:54:36.957Z,44.32
2023-04-25T23:57:04.410Z,44.01
2023-04-25T23:59:32.134Z,44.31
